Time;durP1;ratioP1;P1;durP2;ratioP2;P2;SDS_P1;SDS_P2;PMS_P1;PMS_P2;Temp;Humidity;BMP_temperature;BMP_pressure;BME280_temperature;BME280_humidity;BME280_pressure;Samples;Min_cycle;Max_cycle;Signal;HPM_P1;HPM_P2
2021/01/15 00:01:38;;;;;;;12.75;6.78;;;15.80;61.20;;;;;;4961084;28;20034;-69
2021/01/15 00:04:04;;;;;;;13.27;5.60;;;16.20;62.00;;;;;;4979122;28;20037;-68
2021/01/15 00:06:31;;;;;;;12.40;6.15;;;15.70;61.20;;;;;;4965521;28;20032;-67
2021/01/15 00:08:57;;;;;;;10.70;5.75;;;15.70;61.20;;;;;;4953440;28;20026;-67
2021/01/15 00:11:31;;;;;;;12.30;6.20;;;15.70;61.30;;;;;;4961782;29;20024;-67
2021/01/15 00:14:00;;;;;;;11.07;5.88;;;15.70;61.30;;;;;;4978270;28;20031;-68
2021/01/15 00:16:32;;;;;;;11.63;5.60;;;15.70;61.10;;;;;;4963432;28;20034;-68
2021/01/15 00:19:00;;;;;;;11.23;6.03;;;15.60;61.10;;;;;;4956678;28;20046;-68
2021/01/15 00:21:31;;;;;;;10.35;5.50;;;15.70;61.00;;;;;;4976258;28;20233;-68
2021/01/15 00:23:59;;;;;;;11.15;5.40;;;15.60;60.90;;;;;;4950064;28;20031;-69
2021/01/15 00:26:26;;;;;;;9.40;5.30;;;15.50;60.90;;;;;;4972522;28;20027;-68
2021/01/15 00:28:53;;;;;;;11.18;5.65;;;15.60;61.00;;;;;;4978408;28;20386;-67
2021/01/15 00:31:18;;;;;;;11.85;5.88;;;15.50;61.00;;;;;;4963133;28;20019;-69
2021/01/15 00:33:45;;;;;;;10.15;5.68;;;15.50;60.90;;;;;;4966210;28;20037;-70
2021/01/15 00:36:12;;;;;;;11.15;5.75;;;15.60;61.00;;;;;;4949418;29;20039;-68
2021/01/15 00:38:38;;;;;;;9.48;5.40;;;15.50;61.10;;;;;;4966892;28;20028;-69
2021/01/15 00:41:07;;;;;;;10.43;5.30;;;15.50;61.10;;;;;;4956471;28;20062;-69
2021/01/15 00:43:32;;;;;;;8.68;5.13;;;15.40;61.20;;;;;;4976323;28;20031;-69
2021/01/15 00:45:58;;;;;;;8.63;5.05;;;15.40;61.30;;;;;;4983362;28;20037;-68
2021/01/15 00:48:24;;;;;;;9.05;5.10;;;15.40;61.40;;;;;;4957350;29;20027;-69
2021/01/15 00:50:50;;;;;;;9.10;4.57;;;15.30;61.30;;;;;;4976476;28;20665;-68
2021/01/15 00:53:15;;;;;;;8.63;4.70;;;15.40;61.50;;;;;;4976683;28;20034;-65
2021/01/15 00:55:41;;;;;;;9.18;4.82;;;15.30;61.30;;;;;;4974419;28;20059;-69
2021/01/15 00:58:07;;;;;;;9.65;4.85;;;15.30;61.10;;;;;;4963926;28;20114;-66
2021/01/15 01:00:32;;;;;;;9.38;4.90;;;15.30;61.20;;;;;;4976939;28;20035;-68
2021/01/15 01:02:58;;;;;;;8.90;5.20;;;15.20;61.40;;;;;;4972315;28;20030;-68
2021/01/15 01:05:25;;;;;;;8.48;5.35;;;15.20;61.30;;;;;;4975857;28;20384;-69
2021/01/15 01:07:51;;;;;;;9.93;4.95;;;15.20;61.20;;;;;;4965160;28;20060;-68
2021/01/15 01:10:18;;;;;;;9.40;4.63;;;15.20;61.30;;;;;;4956222;29;20026;-69
2021/01/15 01:12:44;;;;;;;9.68;4.80;;;15.50;61.30;;;;;;4960362;28;20034;-69
2021/01/15 01:15:13;;;;;;;8.10;4.57;;;15.10;61.20;;;;;;4961480;28;20038;-69
2021/01/15 01:17:39;;;;;;;7.82;4.15;;;15.20;61.00;;;;;;4975475;28;20439;-68
2021/01/15 01:20:07;;;;;;;9.77;4.72;;;15.20;61.10;;;;;;4948772;29;20492;-69
2021/01/15 01:22:32;;;;;;;9.10;4.57;;;15.20;61.00;;;;;;4948156;29;20035;-68
2021/01/15 01:24:59;;;;;;;7.72;4.25;;;15.20;61.00;;;;;;4968364;28;20086;-67
2021/01/15 01:27:24;;;;;;;8.18;4.63;;;15.30;61.10;;;;;;4979190;28;20492;-69
2021/01/15 01:29:50;;;;;;;10.68;4.72;;;15.10;61.00;;;;;;4956854;29;20061;-68
2021/01/15 01:32:16;;;;;;;8.63;4.60;;;15.10;61.00;;;;;;4971822;28;20027;-69
2021/01/15 01:34:41;;;;;;;9.13;4.72;;;15.10;61.10;;;;;;4959914;28;20027;-69
2021/01/15 01:37:07;;;;;;;8.82;4.63;;;15.10;61.00;;;;;;4946797;29;20071;-68
2021/01/15 01:39:32;;;;;;;8.40;4.40;;;15.10;60.90;;;;;;4970687;28;20031;-67
2021/01/15 01:41:58;;;;;;;7.07;4.50;;;15.00;60.90;;;;;;4981847;28;20062;-69
2021/01/15 01:44:24;;;;;;;8.38;4.50;;;15.00;61.10;;;;;;4980266;28;20599;-68
2021/01/15 01:46:52;;;;;;;8.63;4.53;;;15.00;61.10;;;;;;4964711;28;20088;-68
2021/01/15 01:49:18;;;;;;;8.75;4.40;;;15.00;61.00;;;;;;4982252;28;20019;-69
2021/01/15 01:51:47;;;;;;;8.95;4.72;;;15.10;60.90;;;;;;4981502;28;20015;-67
2021/01/15 01:54:13;;;;;;;8.75;4.63;;;15.00;60.90;;;;;;4954251;29;20027;-73
2021/01/15 01:56:40;;;;;;;8.57;5.07;;;15.00;61.00;;;;;;4982699;28;20030;-70
2021/01/15 01:59:07;;;;;;;7.93;4.30;;;15.00;61.00;;;;;;4971375;28;20492;-69
2021/01/15 02:01:33;;;;;;;7.68;4.57;;;15.00;60.90;;;;;;4967144;28;20079;-67
2021/01/15 02:04:03;;;;;;;8.55;4.95;;;15.00;60.90;;;;;;4969758;28;20026;-68
2021/01/15 02:06:31;;;;;;;8.02;4.30;;;15.00;60.80;;;;;;4970750;28;20031;-68
2021/01/15 02:08:56;;;;;;;8.88;4.57;;;15.00;60.80;;;;;;4954385;28;20672;-67
2021/01/15 02:11:40;;;;;;;7.72;4.43;;;15.00;60.70;;;;;;4959369;28;20023;-68
2021/01/15 02:14:09;;;;;;;7.85;4.47;;;14.90;60.90;;;;;;4950167;28;20449;-68
2021/01/15 02:16:35;;;;;;;8.40;4.35;;;14.90;60.70;;;;;;4973450;28;20031;-66
2021/01/15 02:19:09;;;;;;;7.35;4.60;;;15.00;60.60;;;;;;4972250;28;20037;-68
2021/01/15 02:21:47;;;;;;;7.47;4.60;;;15.00;60.50;;;;;;4969985;28;20031;-67
2021/01/15 02:24:34;;;;;;;8.15;4.70;;;15.00;60.40;;;;;;4957628;28;20031;-68
2021/01/15 02:27:15;;;;;;;7.47;4.43;;;14.90;60.40;;;;;;4969117;28;20562;-68
2021/01/15 02:30:01;;;;;;;8.70;4.43;;;15.00;60.40;;;;;;4951959;28;20020;-68
2021/01/15 02:32:49;;;;;;;8.15;4.70;;;14.90;60.30;;;;;;4954752;28;20027;-68
2021/01/15 02:35:33;;;;;;;9.57;4.80;;;14.90;60.30;;;;;;4952607;28;20023;-69
2021/01/15 02:38:13;;;;;;;10.02;4.65;;;15.00;60.00;;;;;;4967689;28;20020;-69
2021/01/15 02:41:05;;;;;;;7.93;4.82;;;15.00;59.90;;;;;;4976684;28;20030;-67
2021/01/15 02:43:33;;;;;;;7.93;4.88;;;15.00;59.90;;;;;;4974727;28;20169;-69
2021/01/15 02:46:01;;;;;;;7.15;4.68;;;14.90;60.00;;;;;;4955598;28;20027;-69
2021/01/15 02:48:30;;;;;;;8.93;5.05;;;14.90;60.10;;;;;;4954239;28;20158;-70
2021/01/15 02:50:58;;;;;;;7.28;4.70;;;14.90;60.00;;;;;;4949492;29;20020;-66
2021/01/15 02:53:24;;;;;;;7.30;4.70;;;14.90;59.80;;;;;;4960214;28;20119;-69
2021/01/15 02:55:50;;;;;;;9.95;5.25;;;15.00;59.90;;;;;;4973657;28;20071;-70
2021/01/15 02:58:15;;;;;;;8.75;4.82;;;15.00;59.70;;;;;;4972023;28;20030;-68
2021/01/15 03:00:41;;;;;;;8.70;4.88;;;14.90;59.70;;;;;;4972629;28;20448;-67
2021/01/15 03:03:37;;;;;;;8.85;5.28;;;15.00;59.70;;;;;;4950662;28;20037;-68
2021/01/15 03:06:13;;;;;;;7.88;4.72;;;14.90;59.50;;;;;;4971412;28;20045;-69
2021/01/15 03:08:40;;;;;;;9.25;5.80;;;14.90;59.50;;;;;;4952018;28;20026;-68
2021/01/15 03:11:06;;;;;;;9.68;5.50;;;14.90;59.50;;;;;;4967612;28;20036;-69
2021/01/15 03:13:33;;;;;;;8.55;5.32;;;14.90;59.60;;;;;;4969070;28;20039;-68
2021/01/15 03:16:02;;;;;;;9.52;5.35;;;14.90;59.60;;;;;;4967602;28;20027;-66
2021/01/15 03:18:30;;;;;;;8.38;5.45;;;14.90;59.50;;;;;;4967932;28;20072;-69
2021/01/15 03:21:01;;;;;;;9.07;5.60;;;14.90;59.70;;;;;;4976920;28;20058;-68
2021/01/15 03:23:27;;;;;;;8.20;5.38;;;14.90;59.50;;;;;;4955240;28;20023;-67
2021/01/15 03:25:53;;;;;;;8.30;5.75;;;14.80;59.50;;;;;;4970474;28;20027;-69
2021/01/15 03:28:18;;;;;;;9.20;5.72;;;14.80;59.50;;;;;;4954880;28;20049;-66
2021/01/15 03:30:44;;;;;;;9.18;5.47;;;14.80;59.60;;;;;;4968702;28;20053;-68
2021/01/15 03:33:10;;;;;;;9.50;6.28;;;14.80;59.50;;;;;;4970023;28;21020;-69
2021/01/15 03:35:35;;;;;;;9.48;6.05;;;14.80;59.80;;;;;;4971779;28;20087;-67
2021/01/15 03:38:06;;;;;;;8.93;5.65;;;14.70;59.70;;;;;;4955876;28;20031;-69
2021/01/15 03:40:37;;;;;;;8.23;5.40;;;14.70;59.80;;;;;;4948412;28;20285;-68
2021/01/15 03:43:14;;;;;;;9.07;5.85;;;14.70;59.90;;;;;;4969072;28;20039;-67
2021/01/15 03:45:41;;;;;;;9.75;5.68;;;14.70;59.90;;;;;;4970611;28;20074;-69
2021/01/15 03:48:11;;;;;;;9.27;5.70;;;14.70;59.90;;;;;;4955178;28;20094;-69
2021/01/15 03:50:37;;;;;;;8.60;5.85;;;14.70;59.80;;;;;;4956790;28;20019;-70
2021/01/15 03:53:03;;;;;;;8.27;5.63;;;14.70;59.40;;;;;;4972216;28;20514;-71
2021/01/15 03:55:29;;;;;;;9.23;5.88;;;14.70;59.30;;;;;;4970297;28;20026;-69
2021/01/15 03:57:54;;;;;;;9.43;5.90;;;14.70;59.40;;;;;;4950374;28;20492;-69
2021/01/15 04:00:20;;;;;;;8.80;6.15;;;14.70;59.40;;;;;;4954795;28;20023;-69
2021/01/15 04:02:46;;;;;;;10.55;6.32;;;14.60;59.40;;;;;;4978588;28;20039;-68
2021/01/15 04:05:13;;;;;;;9.57;6.05;;;14.60;59.50;;;;;;4973556;28;20031;-67
2021/01/15 04:07:40;;;;;;;9.65;6.22;;;14.60;59.60;;;;;;4977454;28;20105;-67
2021/01/15 04:10:09;;;;;;;9.85;5.90;;;14.60;59.60;;;;;;4956155;28;20023;-69
2021/01/15 04:12:35;;;;;;;10.02;6.28;;;14.70;59.70;;;;;;4958690;28;20035;-67
2021/01/15 04:15:01;;;;;;;8.90;6.05;;;14.60;59.60;;;;;;4966965;28;20440;-66
2021/01/15 04:17:26;;;;;;;8.82;5.65;;;14.60;59.70;;;;;;4949884;28;20739;-68
2021/01/15 04:19:52;;;;;;;8.57;5.75;;;14.60;59.70;;;;;;4968829;28;20031;-69
2021/01/15 04:22:17;;;;;;;12.27;6.38;;;14.50;59.60;;;;;;4971022;28;20051;-70
2021/01/15 04:24:43;;;;;;;8.70;6.03;;;14.60;59.80;;;;;;4970609;28;20042;-66
2021/01/15 04:27:09;;;;;;;9.18;6.45;;;14.50;59.80;;;;;;4957526;28;20125;-68
2021/01/15 04:29:35;;;;;;;8.30;6.00;;;14.50;59.80;;;;;;4969846;28;20046;-68
2021/01/15 04:32:02;;;;;;;8.82;6.03;;;14.50;59.80;;;;;;4971187;28;20069;-69
2021/01/15 04:34:27;;;;;;;10.30;6.30;;;14.50;59.70;;;;;;4955668;28;20031;-68
2021/01/15 04:36:53;;;;;;;9.02;5.97;;;14.50;59.80;;;;;;4969777;28;20042;-70
2021/01/15 04:39:19;;;;;;;9.10;6.38;;;14.50;59.90;;;;;;4973491;28;20035;-68
2021/01/15 04:41:48;;;;;;;9.18;6.28;;;14.50;59.90;;;;;;4971974;28;20065;-69
2021/01/15 04:44:14;;;;;;;9.00;5.85;;;14.50;59.90;;;;;;4972929;28;20097;-69
2021/01/15 04:46:41;;;;;;;9.07;6.30;;;14.40;59.90;;;;;;4969467;28;20058;-68
2021/01/15 04:49:10;;;;;;;8.50;5.88;;;14.40;59.90;;;;;;4952331;28;20428;-70
2021/01/15 04:51:37;;;;;;;12.57;5.90;;;14.40;59.90;;;;;;4951073;28;20024;-68
2021/01/15 04:54:05;;;;;;;10.65;6.55;;;14.40;59.70;;;;;;4957502;28;20031;-67
2021/01/15 04:56:47;;;;;;;10.18;6.60;;;14.40;59.70;;;;;;4954134;28;20511;-70
2021/01/15 04:59:14;;;;;;;8.75;6.05;;;14.40;59.70;;;;;;4954049;28;20062;-67
2021/01/15 05:01:42;;;;;;;10.23;7.18;;;14.40;59.70;;;;;;4971900;28;20067;-69
2021/01/15 05:04:09;;;;;;;8.88;5.85;;;14.40;59.70;;;;;;4969901;28;20043;-67
2021/01/15 05:06:45;;;;;;;9.10;6.32;;;14.40;59.60;;;;;;4956923;28;20026;-69
2021/01/15 05:09:18;;;;;;;10.52;6.35;;;14.40;59.70;;;;;;4970897;28;20081;-67
2021/01/15 05:11:45;;;;;;;10.57;6.50;;;14.40;59.50;;;;;;4977969;28;20033;-68
2021/01/15 05:14:13;;;;;;;8.40;6.28;;;14.40;59.30;;;;;;4962501;28;20023;-69
2021/01/15 05:16:41;;;;;;;9.00;5.90;;;14.40;59.30;;;;;;4967324;28;20535;-67
2021/01/15 05:19:08;;;;;;;9.43;6.50;;;14.40;59.20;;;;;;4968862;28;20049;-69
2021/01/15 05:21:34;;;;;;;10.95;7.20;;;14.40;59.80;;;;;;4968433;28;20035;-67
2021/01/15 05:24:01;;;;;;;12.88;6.53;;;14.40;59.50;;;;;;4948576;28;20049;-67
2021/01/15 05:26:27;;;;;;;11.30;6.55;;;14.40;59.80;;;;;;4970259;28;20086;-67
2021/01/15 05:28:53;;;;;;;9.88;6.18;;;14.40;59.00;;;;;;4951149;28;20508;-68
2021/01/15 05:31:22;;;;;;;9.50;6.18;;;14.50;58.80;;;;;;4969841;28;20041;-68
2021/01/15 05:34:08;;;;;;;10.55;6.43;;;14.50;58.80;;;;;;4962108;28;20085;-68
2021/01/15 05:36:35;;;;;;;9.27;6.20;;;14.50;58.50;;;;;;4962871;28;20041;-67
2021/01/15 05:39:18;;;;;;;9.93;6.35;;;14.50;58.40;;;;;;4961340;28;20046;-68
2021/01/15 05:41:46;;;;;;;14.77;6.53;;;14.50;58.30;;;;;;4962497;28;20041;-67
2021/01/15 05:44:23;;;;;;;9.85;5.90;;;14.60;58.20;;;;;;4945407;28;20042;-67
2021/01/15 05:46:49;;;;;;;8.88;5.72;;;14.50;58.20;;;;;;4960595;28;20026;-68
2021/01/15 05:49:14;;;;;;;8.60;5.55;;;14.50;58.30;;;;;;4945457;28;20027;-69
2021/01/15 05:51:40;;;;;;;10.75;5.90;;;14.40;58.50;;;;;;4944876;28;20046;-69
2021/01/15 05:54:07;;;;;;;10.55;6.10;;;14.40;58.60;;;;;;4957867;28;20034;-67
2021/01/15 05:56:41;;;;;;;10.45;6.65;;;14.60;58.80;;;;;;4947328;28;20170;-69
2021/01/15 05:59:20;;;;;;;10.38;5.95;;;14.70;59.20;;;;;;4963467;28;20047;-68
2021/01/15 06:01:56;;;;;;;11.43;6.22;;;14.70;59.40;;;;;;4966714;28;20118;-68
2021/01/15 06:04:34;;;;;;;10.20;5.93;;;14.80;59.30;;;;;;4963527;28;20031;-68
2021/01/15 06:07:15;;;;;;;10.23;6.43;;;14.80;59.00;;;;;;4944436;28;20492;-66
2021/01/15 06:09:43;;;;;;;8.88;6.03;;;14.80;59.00;;;;;;4969502;28;20038;-68
2021/01/15 06:12:14;;;;;;;9.65;5.88;;;14.90;59.00;;;;;;4961806;28;20026;-67
2021/01/15 06:14:58;;;;;;;11.05;5.70;;;14.90;58.90;;;;;;4945592;28;20453;-67
2021/01/15 06:17:27;;;;;;;13.20;7.03;;;14.90;59.00;;;;;;4957765;28;20034;-68
2021/01/15 06:19:58;;;;;;;10.85;6.03;;;14.90;59.40;;;;;;4944260;28;20031;-67
2021/01/15 06:22:43;;;;;;;12.88;5.28;;;15.00;59.40;;;;;;4959803;28;20023;-68
2021/01/15 06:25:11;;;;;;;13.30;5.70;;;15.10;58.90;;;;;;4950679;28;20067;-66
2021/01/15 06:27:41;;;;;;;17.55;5.85;;;15.10;58.80;;;;;;4962979;28;20027;-67
2021/01/15 06:30:14;;;;;;;12.45;5.65;;;15.10;59.30;;;;;;4940115;28;20095;-67
2021/01/15 06:32:45;;;;;;;21.63;6.20;;;15.10;59.50;;;;;;4964581;28;20476;-67
2021/01/15 06:35:22;;;;;;;18.95;6.05;;;15.10;59.30;;;;;;4955040;28;20027;-68
2021/01/15 06:38:00;;;;;;;13.60;5.80;;;15.10;58.90;;;;;;4959387;28;20034;-68
2021/01/15 06:40:37;;;;;;;11.85;5.32;;;15.10;59.10;;;;;;4967459;28;20039;-68
2021/01/15 06:43:04;;;;;;;13.45;5.78;;;15.10;59.10;;;;;;4961347;28;20035;-68
2021/01/15 06:45:45;;;;;;;12.80;5.75;;;15.10;59.10;;;;;;4943128;28;20113;-68
2021/01/15 06:48:16;;;;;;;11.27;5.45;;;15.10;59.00;;;;;;4970030;28;20031;-67
2021/01/15 06:50:46;;;;;;;12.37;5.03;;;15.10;59.10;;;;;;4960607;28;20090;-71
2021/01/15 06:53:24;;;;;;;10.70;5.10;;;15.10;58.80;;;;;;4958704;28;20795;-68
2021/01/15 06:56:01;;;;;;;12.27;5.32;;;15.10;58.90;;;;;;4963775;28;20089;-68
2021/01/15 06:58:30;;;;;;;12.07;5.53;;;15.20;58.80;;;;;;4953693;28;20041;-67
2021/01/15 07:01:16;;;;;;;11.88;5.47;;;15.20;58.70;;;;;;4965015;28;20101;-68
2021/01/15 07:04:03;;;;;;;9.05;5.15;;;15.20;58.70;;;;;;4962624;28;20031;-68
2021/01/15 07:06:30;;;;;;;11.57;5.45;;;15.30;58.80;;;;;;4962315;28;20505;-68
2021/01/15 07:08:58;;;;;;;9.88;4.70;;;15.30;58.60;;;;;;4945984;28;20058;-68
2021/01/15 07:11:26;;;;;;;9.75;5.05;;;15.40;58.70;;;;;;4965314;28;20509;-68
2021/01/15 07:13:53;;;;;;;8.10;4.55;;;15.40;58.70;;;;;;4948917;28;20038;-69
2021/01/15 07:16:52;;;;;;;9.85;4.80;;;15.50;58.70;;;;;;4963025;28;20189;-67
2021/01/15 07:19:19;;;;;;;11.50;4.53;;;15.40;58.70;;;;;;4935732;28;20035;-68
2021/01/15 07:22:03;;;;;;;9.18;4.82;;;15.40;58.70;;;;;;4971687;28;20031;-69
2021/01/15 07:24:36;;;;;;;13.50;5.15;;;15.50;58.50;;;;;;4968073;28;20065;-69
2021/01/15 07:27:03;;;;;;;13.95;5.28;;;15.50;58.90;;;;;;4965474;28;20035;-68
2021/01/15 07:29:33;;;;;;;9.68;4.65;;;15.40;58.20;;;;;;4967340;28;20023;-70
2021/01/15 07:32:07;;;;;;;13.40;5.15;;;15.50;58.30;;;;;;4979153;28;20031;-68
2021/01/15 07:34:37;;;;;;;9.82;4.60;;;15.50;58.50;;;;;;4965803;28;20046;-71
2021/01/15 07:37:19;;;;;;;11.25;4.47;;;15.50;58.50;;;;;;4968615;28;20054;-68
2021/01/15 07:40:17;;;;;;;10.45;4.75;;;15.50;58.40;;;;;;4972660;28;20647;-68
2021/01/15 07:42:51;;;;;;;11.85;8.15;;;15.50;58.50;;;;;;4970373;28;20139;-69
2021/01/15 07:45:22;;;;;;;15.30;9.02;;;15.50;58.20;;;;;;4973443;28;20057;-69
2021/01/15 07:47:50;;;;;;;14.00;6.32;;;15.50;58.00;;;;;;4965703;28;20034;-68
2021/01/15 07:50:34;;;;;;;48.28;43.90;;;15.50;58.00;;;;;;4967104;28;20532;-69
2021/01/15 07:53:22;;;;;;;23.55;19.50;;;15.60;58.40;;;;;;4967297;28;20035;-68
2021/01/15 07:55:53;;;;;;;13.50;11.05;;;15.60;58.20;;;;;;4945923;28;20536;-69
2021/01/15 07:58:24;;;;;;;14.52;10.10;;;15.60;58.40;;;;;;4960335;28;20047;-68
2021/01/15 08:00:50;;;;;;;14.75;10.70;;;15.70;58.60;;;;;;4944719;28;20047;-69
2021/01/15 08:03:17;;;;;;;14.48;9.43;;;15.70;58.60;;;;;;4944912;28;20049;-69
2021/01/15 08:05:45;;;;;;;10.98;9.07;;;15.80;58.60;;;;;;4946030;28;20111;-68
2021/01/15 08:08:16;;;;;;;14.05;8.38;;;15.70;58.50;;;;;;4945657;28;20046;-68
2021/01/15 08:10:49;;;;;;;14.40;8.10;;;15.80;58.50;;;;;;4943827;28;20098;-69
2021/01/15 08:13:28;;;;;;;10.15;7.50;;;15.80;58.30;;;;;;4960968;28;20744;-68
2021/01/15 08:15:55;;;;;;;9.45;6.85;;;15.80;58.30;;;;;;4944542;28;20041;-68
2021/01/15 08:18:22;;;;;;;9.70;7.10;;;15.80;58.10;;;;;;4971135;28;20918;-68
2021/01/15 08:20:53;;;;;;;9.30;6.70;;;15.80;58.10;;;;;;4964846;28;20034;-68
2021/01/15 08:23:21;;;;;;;9.52;6.60;;;15.80;58.10;;;;;;4943107;28;20118;-69
2021/01/15 08:26:02;;;;;;;9.85;6.18;;;15.80;58.00;;;;;;4962457;28;20031;-69
2021/01/15 08:28:28;;;;;;;8.55;6.20;;;15.80;58.00;;;;;;4951732;28;20511;-68
2021/01/15 08:31:08;;;;;;;9.68;6.15;;;15.80;58.00;;;;;;4964205;28;20219;-69
2021/01/15 08:33:34;;;;;;;9.63;6.07;;;15.80;58.10;;;;;;4945797;28;20393;-68
2021/01/15 08:36:02;;;;;;;7.63;5.50;;;15.80;58.00;;;;;;4969247;28;20118;-68
2021/01/15 08:38:35;;;;;;;9.15;5.38;;;15.80;57.90;;;;;;4944573;28;20544;-68
2021/01/15 08:41:12;;;;;;;11.63;6.28;;;15.80;58.00;;;;;;4949202;28;20039;-68
2021/01/15 08:43:38;;;;;;;7.85;5.63;;;15.90;57.90;;;;;;4961766;28;20117;-69
2021/01/15 08:46:04;;;;;;;7.72;5.22;;;15.80;58.00;;;;;;4965638;28;20042;-69
2021/01/15 08:48:30;;;;;;;8.07;5.30;;;15.80;58.10;;;;;;4971174;28;20031;-68
2021/01/15 08:51:07;;;;;;;9.35;5.07;;;15.80;58.00;;;;;;4946341;28;20046;-67
2021/01/15 08:54:04;;;;;;;7.82;5.15;;;15.80;58.00;;;;;;4969565;28;20105;-69
2021/01/15 08:56:46;;;;;;;8.38;5.05;;;15.70;57.80;;;;;;4951793;28;20027;-70
2021/01/15 08:59:32;;;;;;;8.10;4.97;;;15.80;58.10;;;;;;4970418;28;20035;-69
2021/01/15 09:02:05;;;;;;;8.02;4.50;;;15.80;58.10;;;;;;4969793;28;20118;-68
2021/01/15 09:04:34;;;;;;;8.00;5.00;;;15.70;58.20;;;;;;4963130;28;20035;-69
2021/01/15 09:07:03;;;;;;;6.60;4.20;;;15.70;58.10;;;;;;4963606;28;20172;-68
2021/01/15 09:09:30;;;;;;;8.82;4.30;;;15.70;58.10;;;;;;4963882;28;20388;-68
2021/01/15 09:12:04;;;;;;;7.40;4.30;;;15.70;57.80;;;;;;4962112;28;20043;-68
2021/01/15 09:14:33;;;;;;;7.00;4.43;;;15.70;58.20;;;;;;4942383;28;20037;-68
2021/01/15 09:17:00;;;;;;;7.20;4.45;;;15.70;58.10;;;;;;4963257;28;20317;-68
2021/01/15 09:19:26;;;;;;;7.55;4.82;;;15.70;58.10;;;;;;4966990;28;20034;-69
2021/01/15 09:21:56;;;;;;;7.90;4.30;;;15.70;58.20;;;;;;4958227;28;20046;-69
2021/01/15 09:24:23;;;;;;;8.10;4.80;;;15.70;57.70;;;;;;4955076;28;20073;-70
2021/01/15 09:26:56;;;;;;;7.53;4.85;;;15.70;57.80;;;;;;4958382;28;20033;-68
2021/01/15 09:29:23;;;;;;;9.13;4.95;;;15.70;57.70;;;;;;4966587;28;20027;-69
2021/01/15 09:31:49;;;;;;;7.40;4.30;;;15.70;57.70;;;;;;4953944;28;20026;-69
2021/01/15 09:34:15;;;;;;;8.45;4.55;;;15.70;57.70;;;;;;4975631;28;20517;-67
2021/01/15 09:36:43;;;;;;;6.75;3.90;;;15.70;57.70;;;;;;4970305;28;20031;-68
2021/01/15 09:39:10;;;;;;;8.20;4.40;;;15.70;57.70;;;;;;4980128;28;20058;-67
2021/01/15 09:41:41;;;;;;;7.63;4.30;;;15.80;57.70;;;;;;4957993;28;20093;-68
2021/01/15 09:44:06;;;;;;;6.72;4.13;;;15.80;57.80;;;;;;4950491;28;20030;-67
2021/01/15 09:46:32;;;;;;;6.78;4.03;;;15.90;57.80;;;;;;4968473;28;20022;-67
2021/01/15 09:48:58;;;;;;;9.13;4.30;;;15.90;57.60;;;;;;4965937;28;20037;-68
2021/01/15 09:51:25;;;;;;;8.48;4.05;;;15.90;57.50;;;;;;4968352;28;20543;-67
2021/01/15 09:53:52;;;;;;;7.70;4.18;;;15.90;58.20;;;;;;4968828;28;20134;-68
2021/01/15 09:56:35;;;;;;;8.23;3.90;;;15.80;58.10;;;;;;4946144;28;20150;-69
2021/01/15 09:59:02;;;;;;;6.88;3.70;;;15.90;58.20;;;;;;4958642;28;20066;-67
2021/01/15 10:01:30;;;;;;;6.68;4.30;;;15.90;58.60;;;;;;4962576;28;20054;-67
2021/01/15 10:03:57;;;;;;;7.63;3.80;;;15.90;58.30;;;;;;4969102;28;20618;-68
2021/01/15 10:06:23;;;;;;;8.85;4.07;;;15.90;58.10;;;;;;4969193;28;20290;-68
2021/01/15 10:08:49;;;;;;;7.00;3.85;;;15.90;58.10;;;;;;4966065;28;20090;-67
2021/01/15 10:11:27;;;;;;;7.15;3.75;;;15.80;58.10;;;;;;4955305;28;20214;-67
2021/01/15 10:13:54;;;;;;;7.65;4.32;;;15.90;58.20;;;;;;4954704;28;20097;-67
2021/01/15 10:16:20;;;;;;;10.88;6.20;;;15.90;58.30;;;;;;4968103;28;20101;-68
2021/01/15 10:18:45;;;;;;;10.23;5.40;;;15.90;58.20;;;;;;4953524;28;20027;-67
2021/01/15 10:21:11;;;;;;;8.40;4.68;;;15.90;58.40;;;;;;4952252;28;20031;-67
2021/01/15 10:23:37;;;;;;;8.45;5.32;;;16.00;58.20;;;;;;4954707;28;20129;-68
2021/01/15 10:26:04;;;;;;;10.55;5.50;;;16.10;57.80;;;;;;4943943;28;20037;-67
2021/01/15 10:28:30;;;;;;;9.75;4.82;;;16.00;57.70;;;;;;4945100;28;20053;-67
2021/01/15 10:30:56;;;;;;;7.95;4.32;;;16.10;58.10;;;;;;4963965;28;20031;-66
2021/01/15 10:33:23;;;;;;;8.05;4.25;;;16.10;58.40;;;;;;4952833;28;20030;-65
2021/01/15 10:35:50;;;;;;;11.90;4.43;;;16.10;58.40;;;;;;4968981;28;20114;-65
2021/01/15 10:38:15;;;;;;;12.23;4.95;;;16.10;58.50;;;;;;4939539;28;20030;-65
2021/01/15 10:40:44;;;;;;;11.13;4.20;;;16.20;58.50;;;;;;4955425;28;20563;-66
2021/01/15 10:43:10;;;;;;;10.50;3.97;;;16.30;59.00;;;;;;4965674;28;20891;-65
2021/01/15 10:45:36;;;;;;;9.50;4.45;;;16.30;58.60;;;;;;4959555;28;20058;-64
2021/01/15 10:48:03;;;;;;;12.15;5.35;;;16.30;58.60;;;;;;4975286;28;20065;-65
2021/01/15 10:50:30;;;;;;;17.95;6.30;;;16.30;59.70;;;;;;4966997;28;20019;-65
2021/01/15 10:52:55;;;;;;;12.63;6.25;;;16.40;60.10;;;;;;4960046;28;20033;-65
2021/01/15 10:55:21;;;;;;;13.88;5.65;;;16.30;59.80;;;;;;4967730;28;20031;-66
2021/01/15 10:57:47;;;;;;;9.68;5.43;;;16.40;59.80;;;;;;4969021;28;20473;-67
2021/01/15 11:00:14;;;;;;;15.45;10.40;;;16.40;59.70;;;;;;4956635;28;20038;-67
2021/01/15 11:02:39;;;;;;;17.90;8.80;;;16.30;59.60;;;;;;4951977;28;20026;-64
2021/01/15 11:05:08;;;;;;;9.55;6.68;;;16.40;59.90;;;;;;4946776;28;20031;-71
2021/01/15 11:07:34;;;;;;;11.80;6.97;;;16.40;59.70;;;;;;4963032;28;20089;-66
2021/01/15 11:10:00;;;;;;;13.52;6.80;;;16.40;59.50;;;;;;4950036;28;20031;-68
2021/01/15 11:12:26;;;;;;;12.25;7.18;;;16.40;59.60;;;;;;4965832;28;20539;-67
2021/01/15 11:14:51;;;;;;;12.98;6.18;;;16.40;59.40;;;;;;4946539;28;20106;-69
2021/01/15 11:17:17;;;;;;;11.93;5.43;;;16.40;59.10;;;;;;4959704;28;20504;-68
2021/01/15 11:19:43;;;;;;;11.63;5.63;;;16.50;59.20;;;;;;4934421;28;20035;-66
2021/01/15 11:22:09;;;;;;;8.30;4.82;;;16.50;59.00;;;;;;4949829;28;20034;-67
2021/01/15 11:24:34;;;;;;;9.75;5.13;;;16.50;59.00;;;;;;4948281;28;20239;-67
2021/01/15 11:27:00;;;;;;;8.75;5.20;;;16.50;58.90;;;;;;4953604;28;20087;-64
2021/01/15 11:29:26;;;;;;;7.85;4.88;;;16.50;58.90;;;;;;4969532;28;20030;-68
2021/01/15 11:31:51;;;;;;;8.82;4.63;;;16.50;58.90;;;;;;4946696;28;20045;-65
2021/01/15 11:34:20;;;;;;;8.88;4.43;;;16.50;58.80;;;;;;4969156;28;20030;-65
2021/01/15 11:36:48;;;;;;;8.38;4.18;;;16.50;58.90;;;;;;4964587;28;20031;-66
2021/01/15 11:39:13;;;;;;;9.20;4.60;;;16.60;58.90;;;;;;4967864;28;20041;-65
2021/01/15 11:41:40;;;;;;;12.85;4.95;;;16.60;58.40;;;;;;4980376;28;20026;-67
2021/01/15 11:44:06;;;;;;;10.63;4.32;;;16.60;58.20;;;;;;4951245;28;20149;-67
2021/01/15 11:46:32;;;;;;;20.90;5.30;;;16.70;58.60;;;;;;4953725;28;20130;-68
2021/01/15 11:49:02;;;;;;;13.85;4.35;;;16.50;58.70;;;;;;4975132;28;20524;-66
2021/01/15 11:51:27;;;;;;;13.23;4.40;;;16.70;58.50;;;;;;4955744;28;20027;-69
2021/01/15 11:53:53;;;;;;;13.00;4.72;;;16.60;58.80;;;;;;4956638;28;20122;-65
2021/01/15 11:56:19;;;;;;;15.13;5.20;;;16.70;58.30;;;;;;4966882;28;20026;-65
2021/01/15 11:58:44;;;;;;;12.07;4.35;;;16.70;57.50;;;;;;4993356;28;20514;-66
2021/01/15 12:01:10;;;;;;;12.13;4.40;;;16.70;57.90;;;;;;4961627;28;20515;-66
2021/01/15 12:03:36;;;;;;;12.43;3.97;;;16.70;58.30;;;;;;4945858;28;20027;-67
2021/01/15 12:06:02;;;;;;;8.18;3.83;;;16.70;58.50;;;;;;4963959;28;20023;-67
2021/01/15 12:08:28;;;;;;;8.75;3.70;;;16.70;58.30;;;;;;4970032;28;20026;-66
2021/01/15 12:10:56;;;;;;;9.75;3.63;;;16.60;58.30;;;;;;4971771;28;20404;-66
2021/01/15 12:13:22;;;;;;;7.13;3.78;;;16.70;58.10;;;;;;4972175;28;20035;-67
2021/01/15 12:15:52;;;;;;;10.10;3.80;;;16.70;58.20;;;;;;4967161;28;20031;-67
2021/01/15 12:18:18;;;;;;;9.93;3.75;;;16.70;58.10;;;;;;4966835;28;20282;-66
2021/01/15 12:20:44;;;;;;;7.90;3.70;;;16.70;57.80;;;;;;4970004;28;20396;-66
2021/01/15 12:23:11;;;;;;;11.52;3.90;;;16.70;57.90;;;;;;4971088;28;20102;-66
2021/01/15 12:25:39;;;;;;;14.05;4.20;;;16.70;58.00;;;;;;4972407;28;20090;-66
2021/01/15 12:28:15;;;;;;;26.42;5.35;;;16.70;58.10;;;;;;4965881;28;20472;-66
2021/01/15 12:30:42;;;;;;;26.70;5.50;;;16.70;58.00;;;;;;4948644;28;20460;-66
2021/01/15 12:33:11;;;;;;;21.70;5.25;;;16.60;57.90;;;;;;4972845;28;20054;-66
2021/01/15 12:35:38;;;;;;;19.98;5.38;;;16.60;56.70;;;;;;4970900;28;20026;-66
2021/01/15 12:38:07;;;;;;;14.85;4.97;;;16.60;57.00;;;;;;4971065;28;20110;-67
2021/01/15 12:40:34;;;;;;;20.92;5.55;;;16.60;57.10;;;;;;4972912;28;20030;-68
2021/01/15 12:43:00;;;;;;;15.70;4.38;;;16.60;57.60;;;;;;4969904;28;20050;-68
2021/01/15 12:45:25;;;;;;;14.90;5.25;;;16.60;57.50;;;;;;4951983;28;20058;-67
2021/01/15 12:47:51;;;;;;;14.50;4.25;;;16.50;57.60;;;;;;4967207;28;20053;-66
2021/01/15 12:50:17;;;;;;;12.93;4.43;;;16.50;57.70;;;;;;4969423;28;20033;-67
2021/01/15 12:52:42;;;;;;;15.02;4.85;;;16.50;58.30;;;;;;4958205;28;20034;-67
2021/01/15 12:55:08;;;;;;;14.02;4.32;;;16.60;59.10;;;;;;4969869;28;20086;-68